aviador You're here:

CYYG Decoded Metar

CHARLOTTETOWN in PE, CANADA
Report Time2018-06-18 15:00:00
UTC Time2018-06-18 15:23:30
Flight Rules vfr VFR
Wind180° at 21 Gusting to 27 kt
W.Decomp.*RWY 21: 20.7 kt HW 3.6 kt LCW
RWY 28: 3.6 kt HW 20.7 kt LCW
W.Rank180° ranks 5
Current wind is above 180° avg. (10.5)
Visibility9999 m
Phenomena:Light Rain
Clouds:Scattered 010 Hf
Overcast 072 Hf
Expected CloudBase > 800 ft AGL from Temp-Dew spread
Ceiling7,200 ft
Temp13°C (ISA -2)
Dew Point11°C (88% RH)
AAT5.8°C
QNH1010 hPa
Density Alt259 ft
Elevation177 ft
Report Wrong Elevation
Raw Report
CYYG 181500Z 18021G27KT 12SM -RA SCT010 OVC072 13/11 A2984 RMK
SF4AC4 SLP107=

Extra information for CYYG:More info

Metar Taf Metar & Taf Last 4 Metars F.Rules Stats Wind Profile Meteogram Temp Stats Airport Information Weather charts Add Link Nearby VenuesMetar ALERT Operation Metar Decoded Social comments